createdAt,value
2022-08-22T00:02:15.929Z,74.85
2022-08-22T00:02:46.132Z,69.46
2022-08-22T00:02:48.934Z,69.22
2022-08-22T00:03:03.866Z,70.28
2022-08-22T00:03:04.982Z,71.66
2022-08-22T00:04:42.261Z,75.10
2022-08-22T00:07:08.624Z,74.61
2022-08-22T00:09:35.018Z,75.29
2022-08-22T00:12:01.381Z,75.09
2022-08-22T00:14:27.773Z,75.21
2022-08-22T00:16:54.132Z,75.37
2022-08-22T00:19:20.606Z,76.10
2022-08-22T00:21:46.973Z,75.82
2022-08-22T00:24:13.354Z,76.07
2022-08-22T00:26:43.396Z,75.84
2022-08-22T00:29:06.138Z,76.00
2022-08-22T00:31:32.519Z,76.27
2022-08-22T00:33:58.883Z,76.47
2022-08-22T00:36:25.329Z,76.94
2022-08-22T00:38:51.761Z,76.90
2022-08-22T00:41:18.149Z,76.39
2022-08-22T00:43:44.512Z,76.53
2022-08-22T00:46:10.959Z,76.47
2022-08-22T00:48:37.333Z,76.58
2022-08-22T00:51:03.723Z,76.51
2022-08-22T00:53:30.161Z,75.76
2022-08-22T00:55:56.581Z,75.99
2022-08-22T00:58:22.955Z,75.82
2022-08-22T01:00:49.432Z,76.30
2022-08-22T01:03:15.722Z,76.00
2022-08-22T01:05:42.116Z,76.08
2022-08-22T01:08:08.540Z,76.55
2022-08-22T01:10:34.983Z,77.09
2022-08-22T01:13:01.352Z,76.92
2022-08-22T01:15:27.746Z,76.49
2022-08-22T01:17:54.148Z,76.00
2022-08-22T01:20:20.612Z,76.08
2022-08-22T01:22:46.973Z,76.23
2022-08-22T01:25:13.374Z,76.29
2022-08-22T01:27:39.808Z,76.41
2022-08-22T01:30:06.243Z,76.02
2022-08-22T01:32:32.673Z,76.76
2022-08-22T01:34:59.042Z,76.65
2022-08-22T01:37:25.571Z,75.91
2022-08-22T01:39:51.979Z,75.99
2022-08-22T01:42:18.298Z,76.06
2022-08-22T01:44:44.712Z,75.85
2022-08-22T01:47:11.102Z,75.52
2022-08-22T01:49:37.498Z,75.60
2022-08-22T01:52:03.922Z,75.87
2022-08-22T01:54:30.307Z,75.86
2022-08-22T01:56:56.663Z,76.01
2022-08-22T01:59:23.136Z,75.79
2022-08-22T02:01:49.491Z,75.75
2022-08-22T02:04:15.887Z,75.90
2022-08-22T02:06:42.250Z,76.15
2022-08-22T02:09:08.620Z,76.28
2022-08-22T02:11:35.028Z,76.28
2022-08-22T02:14:01.418Z,76.82
2022-08-22T02:16:27.775Z,76.48
2022-08-22T02:18:54.143Z,76.28
2022-08-22T02:21:20.620Z,75.97
2022-08-22T02:23:46.985Z,75.85
2022-08-22T02:26:13.348Z,75.30
2022-08-22T02:28:40.513Z,75.04
2022-08-22T02:31:06.113Z,74.69
2022-08-22T02:33:32.543Z,74.81
2022-08-22T02:35:58.910Z,75.27
2022-08-22T02:38:25.292Z,75.61
2022-08-22T02:40:51.652Z,75.79
2022-08-22T02:43:18.054Z,75.74
2022-08-22T02:45:44.437Z,76.09
2022-08-22T02:48:10.804Z,75.24
2022-08-22T02:50:37.244Z,74.76
2022-08-22T02:53:03.636Z,75.34
2022-08-22T02:55:30.068Z,75.74
2022-08-22T02:57:56.494Z,76.10
2022-08-22T03:00:30.748Z,75.98
2022-08-22T03:02:49.264Z,76.58
2022-08-22T03:05:15.649Z,76.81
2022-08-22T03:07:42.019Z,76.78
2022-08-22T03:10:08.441Z,76.62
2022-08-22T03:12:34.811Z,76.68
2022-08-22T03:15:01.176Z,76.65
2022-08-22T03:17:27.582Z,76.06
2022-08-22T03:19:53.988Z,77.07
2022-08-22T03:22:20.366Z,76.49
2022-08-22T03:24:46.730Z,76.79
2022-08-22T03:27:13.184Z,76.69
2022-08-22T03:29:39.546Z,76.65
2022-08-22T03:32:05.949Z,76.54
2022-08-22T03:34:32.317Z,76.53
2022-08-22T03:36:58.726Z,76.34
2022-08-22T03:39:25.097Z,75.71
2022-08-22T03:41:51.458Z,76.55
2022-08-22T03:44:17.864Z,76.47
2022-08-22T03:46:44.246Z,76.00
2022-08-22T03:49:10.628Z,76.08
2022-08-22T03:51:37.105Z,75.78
2022-08-22T03:54:03.542Z,75.82
2022-08-22T03:56:29.973Z,76.28
2022-08-22T03:58:56.399Z,75.49
2022-08-22T04:01:22.778Z,75.17
2022-08-22T04:03:49.151Z,75.48
2022-08-22T04:06:15.604Z,75.24
2022-08-22T04:08:43.927Z,75.66
2022-08-22T04:11:08.466Z,75.52
2022-08-22T04:13:34.840Z,75.07
2022-08-22T04:16:01.226Z,74.71
2022-08-22T04:18:27.668Z,75.01
2022-08-22T04:20:54.098Z,75.20
2022-08-22T04:23:20.462Z,74.91
2022-08-22T04:25:46.827Z,73.89
2022-08-22T04:28:13.297Z,73.98
2022-08-22T04:30:39.677Z,73.51
2022-08-22T04:33:06.060Z,73.19
2022-08-22T04:35:32.425Z,72.93
2022-08-22T04:37:58.905Z,73.24
2022-08-22T04:40:25.317Z,73.35
2022-08-22T04:42:51.700Z,73.57
2022-08-22T04:45:18.097Z,72.48
2022-08-22T04:47:46.030Z,71.49
2022-08-22T04:50:10.827Z,70.17
2022-08-22T04:52:37.320Z,68.42
2022-08-22T04:55:03.697Z,68.25
2022-08-22T04:57:30.065Z,68.15
2022-08-22T04:59:56.489Z,68.32
2022-08-22T05:02:22.941Z,69.86
2022-08-22T05:04:49.299Z,69.26
2022-08-22T05:07:15.713Z,68.52
2022-08-22T05:09:42.139Z,67.40
2022-08-22T05:12:08.572Z,64.78
2022-08-22T05:14:34.936Z,63.47
2022-08-22T05:17:01.445Z,60.26
2022-08-22T05:19:31.899Z,59.93
2022-08-22T05:21:54.189Z,61.29
2022-08-22T05:24:20.646Z,60.85
2022-08-22T05:26:47.015Z,60.14
2022-08-22T05:29:13.445Z,59.62
2022-08-22T05:31:39.813Z,60.74
2022-08-22T05:34:06.262Z,63.14
2022-08-22T05:36:32.639Z,65.20
2022-08-22T05:38:58.998Z,66.25
2022-08-22T05:41:25.370Z,67.53
2022-08-22T05:43:51.752Z,67.64
2022-08-22T05:46:18.182Z,67.81
2022-08-22T05:48:44.566Z,66.30
2022-08-22T05:51:10.930Z,64.86
2022-08-22T05:53:37.299Z,63.75
2022-08-22T05:56:03.674Z,61.59
2022-08-22T05:58:30.095Z,58.96
2022-08-22T06:00:56.523Z,58.22
2022-08-22T06:03:22.883Z,56.53
2022-08-22T06:05:49.384Z,55.78
2022-08-22T06:08:15.747Z,54.61
2022-08-22T06:10:42.114Z,54.35
2022-08-22T06:13:11.583Z,52.99
2022-08-22T06:15:35.019Z,51.10
2022-08-22T06:18:01.406Z,51.18
2022-08-22T06:20:28.782Z,51.17
2022-08-22T06:22:54.149Z,52.38
2022-08-22T06:25:20.549Z,50.62
2022-08-22T06:27:46.936Z,50.14
2022-08-22T06:30:13.415Z,50.64
2022-08-22T06:32:59.036Z,49.23
2022-08-22T06:35:06.296Z,51.08
2022-08-22T06:37:32.661Z,54.35
2022-08-22T06:39:59.113Z,55.97
2022-08-22T06:42:25.472Z,56.43
2022-08-22T06:44:51.846Z,58.57
2022-08-22T06:47:18.241Z,59.68
2022-08-22T06:49:44.675Z,59.84
2022-08-22T06:52:11.079Z,60.23
2022-08-22T06:54:37.446Z,61.14
2022-08-22T06:57:03.829Z,60.70
2022-08-22T06:59:30.303Z,60.77
2022-08-22T07:01:56.742Z,61.04
2022-08-22T07:04:23.041Z,60.72
2022-08-22T07:06:49.491Z,60.77
2022-08-22T07:09:15.884Z,60.96
2022-08-22T07:11:42.264Z,61.87
2022-08-22T07:14:08.636Z,62.33
2022-08-22T07:16:35.011Z,62.65
2022-08-22T07:19:01.457Z,62.36
2022-08-22T07:21:27.842Z,61.67
2022-08-22T07:23:54.212Z,61.02
2022-08-22T07:26:20.587Z,60.02
2022-08-22T07:28:51.341Z,59.90
2022-08-22T07:31:13.460Z,61.63
2022-08-22T07:33:39.852Z,61.21
2022-08-22T07:36:06.247Z,60.33
2022-08-22T07:38:32.638Z,60.72
2022-08-22T07:40:59.047Z,59.96
2022-08-22T07:43:25.483Z,56.46
2022-08-22T07:45:51.906Z,54.02
2022-08-22T07:48:25.612Z,52.05
2022-08-22T07:50:44.703Z,49.77
2022-08-22T07:53:11.133Z,48.27
2022-08-22T07:55:48.487Z,47.64
2022-08-22T07:58:04.215Z,45.82
2022-08-22T08:00:30.298Z,45.14
2022-08-22T08:02:56.799Z,42.91
2022-08-22T08:05:23.163Z,42.10
2022-08-22T08:07:49.534Z,40.79
2022-08-22T08:10:15.941Z,42.05
2022-08-22T08:12:42.329Z,42.70
2022-08-22T08:15:08.695Z,45.88
2022-08-22T08:17:35.136Z,47.68
2022-08-22T08:20:01.500Z,48.39
2022-08-22T08:22:28.005Z,47.34
2022-08-22T08:24:54.434Z,45.83
2022-08-22T08:27:20.883Z,46.62
2022-08-22T08:29:47.291Z,48.44
2022-08-22T08:32:13.652Z,50.19
2022-08-22T08:34:40.033Z,49.00
2022-08-22T08:37:06.408Z,47.06
2022-08-22T08:39:35.523Z,46.06
2022-08-22T08:41:59.253Z,45.95
2022-08-22T08:44:25.615Z,43.88
2022-08-22T08:46:55.865Z,42.37
2022-08-22T08:49:21.031Z,43.67
2022-08-22T08:51:44.795Z,46.35
2022-08-22T08:54:11.178Z,47.31
2022-08-22T08:56:37.551Z,47.33
2022-08-22T08:59:03.917Z,44.87
2022-08-22T09:01:30.343Z,43.98
2022-08-22T09:03:56.686Z,43.23
2022-08-22T09:06:23.058Z,41.69
2022-08-22T09:08:53.840Z,40.81
2022-08-22T09:11:15.894Z,39.03
2022-08-22T09:13:42.283Z,39.93
2022-08-22T09:16:10.030Z,40.66
2022-08-22T09:18:35.088Z,42.31
2022-08-22T09:21:01.847Z,44.21
2022-08-22T09:23:28.408Z,42.18
2022-08-22T09:25:54.786Z,39.84
2022-08-22T09:28:21.156Z,39.51
2022-08-22T09:30:47.574Z,39.15
2022-08-22T09:33:13.931Z,37.59
2022-08-22T09:35:40.299Z,37.40
2022-08-22T09:38:06.707Z,37.72
2022-08-22T09:40:33.101Z,38.38
2022-08-22T09:42:59.926Z,39.58
2022-08-22T09:45:26.688Z,40.01
2022-08-22T09:47:53.375Z,39.99
2022-08-22T09:50:20.116Z,39.29
2022-08-22T09:52:46.879Z,37.83
2022-08-22T09:55:16.023Z,37.64
2022-08-22T09:57:39.635Z,38.00
2022-08-22T10:00:06.413Z,39.57
2022-08-22T10:02:33.300Z,38.26
2022-08-22T10:04:59.622Z,37.17
2022-08-22T10:07:26.015Z,38.84
2022-08-22T10:09:54.977Z,39.08
2022-08-22T10:12:18.843Z,38.61
2022-08-22T10:14:50.539Z,40.29
2022-08-22T10:17:11.684Z,41.45
2022-08-22T10:19:38.244Z,39.44
2022-08-22T10:22:04.471Z,38.70
2022-08-22T10:24:30.912Z,38.84
2022-08-22T10:26:57.280Z,37.85
2022-08-22T10:29:23.676Z,37.22
2022-08-22T10:31:58.901Z,36.18
2022-08-22T10:34:16.458Z,35.67
2022-08-22T10:36:42.850Z,35.31
2022-08-22T10:39:11.613Z,34.35
2022-08-22T10:41:35.621Z,35.74
2022-08-22T10:44:04.178Z,36.45
2022-08-22T10:46:28.357Z,36.49
2022-08-22T10:48:54.791Z,37.82
2022-08-22T10:51:21.149Z,38.67
2022-08-22T10:53:47.565Z,39.32
2022-08-22T10:56:13.975Z,38.67
2022-08-22T10:58:40.361Z,36.40
2022-08-22T11:01:37.185Z,35.19
2022-08-22T11:03:33.167Z,34.99
2022-08-22T11:05:59.518Z,35.21
2022-08-22T11:08:25.952Z,35.80
2022-08-22T11:10:52.351Z,35.09
2022-08-22T11:13:18.724Z,36.48
2022-08-22T11:15:45.157Z,38.01
2022-08-22T11:18:13.050Z,39.95
2022-08-22T11:20:37.895Z,41.21
2022-08-22T11:23:04.290Z,40.91
2022-08-22T11:25:35.789Z,40.40
2022-08-22T11:27:57.115Z,41.05
2022-08-22T11:30:23.480Z,41.29
2022-08-22T11:32:50.707Z,40.78
2022-08-22T11:35:16.256Z,41.16
2022-08-22T11:37:43.664Z,42.35
2022-08-22T11:40:09.046Z,43.83
2022-08-22T11:42:35.416Z,44.93
2022-08-22T11:45:01.841Z,44.99
2022-08-22T11:47:28.943Z,44.72
2022-08-22T11:49:54.583Z,44.73
2022-08-22T11:52:21.039Z,44.39
2022-08-22T11:54:47.402Z,44.23
2022-08-22T11:57:13.774Z,43.23
2022-08-22T11:59:40.290Z,41.41
2022-08-22T12:02:08.778Z,39.62
2022-08-22T12:04:32.990Z,39.63
2022-08-22T12:06:59.448Z,39.24
2022-08-22T12:09:25.845Z,38.67
2022-08-22T12:11:52.210Z,37.40
2022-08-22T12:14:18.595Z,36.58
2022-08-22T12:16:45.089Z,36.65
2022-08-22T12:19:11.485Z,38.87
2022-08-22T12:21:38.479Z,39.67
2022-08-22T12:24:06.122Z,38.06
2022-08-22T12:26:30.657Z,37.70
2022-08-22T12:28:57.034Z,38.54
2022-08-22T12:31:23.413Z,39.96
2022-08-22T12:33:50.425Z,40.15
2022-08-22T12:36:18.267Z,40.62
2022-08-22T12:38:42.610Z,40.98
2022-08-22T12:41:08.999Z,41.82
2022-08-22T12:43:35.381Z,41.65
2022-08-22T12:46:01.846Z,41.47
2022-08-22T12:48:28.244Z,41.37
2022-08-22T12:50:54.723Z,41.17
2022-08-22T12:53:21.104Z,40.66
2022-08-22T12:55:47.585Z,41.29
2022-08-22T12:58:13.941Z,40.64
2022-08-22T13:00:41.630Z,40.85
2022-08-22T13:03:07.057Z,41.11
2022-08-22T13:05:40.508Z,42.60
2022-08-22T13:08:04.104Z,44.43
2022-08-22T13:10:26.383Z,44.62
2022-08-22T13:12:52.815Z,45.41
2022-08-22T13:15:19.222Z,45.76
2022-08-22T13:17:45.610Z,46.04
2022-08-22T13:20:11.982Z,46.15
2022-08-22T13:22:38.876Z,45.51
2022-08-22T13:25:05.055Z,48.52
2022-08-22T13:27:31.238Z,50.35
2022-08-22T13:29:57.651Z,50.41
2022-08-22T13:32:24.027Z,51.05
2022-08-22T13:34:50.417Z,50.84
2022-08-22T13:37:16.782Z,50.59
2022-08-22T13:39:43.169Z,50.31
2022-08-22T13:42:30.144Z,49.22
2022-08-22T13:44:37.616Z,48.87
2022-08-22T13:47:13.719Z,50.30
2022-08-22T13:49:30.482Z,57.18
2022-08-22T13:51:56.872Z,66.14
2022-08-22T13:54:23.231Z,80.38
2022-08-22T13:56:50.554Z,88.95
2022-08-22T13:59:29.282Z,93.03
2022-08-22T19:09:38.815Z,81.52
2022-08-22T19:12:05.644Z,81.71
2022-08-22T19:14:32.082Z,82.31
2022-08-22T19:16:58.539Z,82.43
2022-08-22T19:19:25.035Z,82.01
2022-08-22T19:21:51.546Z,82.02
2022-08-22T19:24:18.028Z,81.77
2022-08-22T19:26:44.556Z,81.47
2022-08-22T19:29:11.037Z,81.57
2022-08-22T19:31:38.471Z,82.15
2022-08-22T19:34:04.953Z,82.68
2022-08-22T19:36:31.386Z,82.75
2022-08-22T19:38:57.981Z,83.02
2022-08-22T19:41:24.469Z,83.11
2022-08-22T19:43:51.048Z,82.92
2022-08-22T19:46:17.433Z,82.53
2022-08-22T19:48:43.885Z,82.21
2022-08-22T19:51:10.471Z,81.43
2022-08-22T19:53:36.798Z,80.86
2022-08-22T19:56:03.166Z,80.77
2022-08-22T19:58:32.928Z,81.34
2022-08-22T20:00:56.093Z,81.68
2022-08-22T20:03:22.650Z,81.21
2022-08-22T20:05:56.892Z,80.79
2022-08-22T20:08:15.387Z,80.79
2022-08-22T20:10:41.795Z,80.27
2022-08-22T20:13:08.315Z,80.17
2022-08-22T20:15:34.722Z,80.95
2022-08-22T20:20:35.143Z,81.79
2022-08-22T20:22:53.983Z,80.94
2022-08-22T20:25:42.899Z,81.02
2022-08-22T20:27:46.821Z,81.62
2022-08-22T20:30:13.226Z,81.92
2022-08-22T20:32:39.601Z,81.79
2022-08-22T20:35:06.081Z,82.08
2022-08-22T20:37:56.137Z,82.33
2022-08-22T20:39:59.058Z,82.19
2022-08-22T20:42:25.214Z,82.45
2022-08-22T20:44:53.675Z,81.84
2022-08-22T20:47:21.226Z,81.31
2022-08-22T20:49:44.415Z,81.53
